< < Back
Terminal Aerodrome Forecast


Current Version              Previous Versions:   1  2  3  4  5  6  7  8  9  

Terminal Aerodrome Forecast

326
FTUS42 KILM 301100
TAFILM
TAF
KILM 301120Z 3012/3112 02010KT P6SM SCT040 BKN120
     FM302300 03005KT P6SM SCT035=



Latest METAR

697
SAUS70 KWBC 301400 RRJ
MTRILM
METAR KILM 301353Z 02008KT 10SM OVC030 15/12 A3000 RMK AO2 SLP159
T01500122


USA.gov is the U.S. government's official web portal to all federal, state and local government web resources and services.